Time;durP1;ratioP1;P1;durP2;ratioP2;P2;SDS_P1;SDS_P2;PMS_P1;PMS_P2;Temp;Humidity;BMP_temperature;BMP_pressure;BME280_temperature;BME280_humidity;BME280_pressure;Samples;Min_cycle;Max_cycle;Signal;HPM_P1;HPM_P2
2022/10/15 00:00:34;;;;;;;34.90;4.82;;;18.20;99.90;;;;;;5054175;28;20513;-85
2022/10/15 00:03:00;;;;;;;29.92;5.57;;;18.20;99.90;;;;;;5056574;28;20485;-84
2022/10/15 00:05:26;;;;;;;24.90;4.30;;;18.20;99.90;;;;;;5052763;28;20033;-85
2022/10/15 00:07:52;;;;;;;38.67;5.05;;;18.20;99.90;;;;;;5053709;28;20195;-85
2022/10/15 00:10:18;;;;;;;27.52;4.28;;;18.20;99.90;;;;;;5051340;28;20044;-85
2022/10/15 00:12:44;;;;;;;41.35;5.20;;;18.20;99.90;;;;;;5050920;28;20013;-85
2022/10/15 00:15:10;;;;;;;28.02;4.60;;;18.20;99.90;;;;;;5065585;28;20035;-84
2022/10/15 00:17:36;;;;;;;32.28;4.90;;;18.20;99.90;;;;;;5052583;28;20017;-85
2022/10/15 00:20:05;;;;;;;33.78;4.38;;;18.20;99.90;;;;;;5055952;28;20037;-84
2022/10/15 00:22:30;;;;;;;39.20;4.50;;;18.20;99.90;;;;;;5054697;28;20017;-85
2022/10/15 00:24:56;;;;;;;36.65;4.85;;;18.30;99.90;;;;;;5054274;28;20116;-85
2022/10/15 00:27:22;;;;;;;27.73;3.78;;;18.20;99.90;;;;;;5065276;28;20012;-84
2022/10/15 00:29:47;;;;;;;30.00;5.10;;;18.20;99.90;;;;;;5060290;28;20029;-84
2022/10/15 00:32:13;;;;;;;22.98;3.67;;;18.30;99.90;;;;;;5061804;28;20077;-85
2022/10/15 00:34:39;;;;;;;26.63;3.90;;;18.30;99.90;;;;;;5059518;28;20113;-85
2022/10/15 00:37:06;;;;;;;23.75;4.07;;;18.30;99.90;;;;;;5058258;28;20037;-84
2022/10/15 00:39:31;;;;;;;27.80;4.13;;;18.30;99.90;;;;;;5058651;28;20035;-85
2022/10/15 00:41:57;;;;;;;28.73;5.63;;;18.30;99.90;;;;;;5055822;28;20649;-85
2022/10/15 00:44:28;;;;;;;25.25;4.13;;;18.30;99.90;;;;;;5056358;28;20108;-85
2022/10/15 00:46:57;;;;;;;31.25;3.75;;;18.30;99.90;;;;;;5054514;28;20052;-85
2022/10/15 00:49:29;;;;;;;32.75;4.15;;;18.30;99.90;;;;;;5057844;28;20063;-85
2022/10/15 00:51:57;;;;;;;23.60;3.97;;;18.30;99.90;;;;;;5068189;28;20136;-84
2022/10/15 00:54:25;;;;;;;31.05;4.82;;;18.30;99.90;;;;;;5062335;28;20040;-84
2022/10/15 00:56:51;;;;;;;30.02;4.70;;;18.30;99.90;;;;;;5059820;28;20063;-83
2022/10/15 00:59:21;;;;;;;28.75;4.60;;;18.30;99.90;;;;;;5058653;28;20452;-83
2022/10/15 01:01:47;;;;;;;19.15;2.97;;;18.30;99.90;;;;;;5058363;28;20467;-83
2022/10/15 01:04:14;;;;;;;29.63;4.50;;;18.30;99.90;;;;;;5056199;28;20035;-83
2022/10/15 01:06:40;;;;;;;30.45;4.20;;;18.30;99.90;;;;;;5057441;28;20689;-83
2022/10/15 01:09:05;;;;;;;34.03;4.18;;;18.30;99.90;;;;;;5054831;28;20029;-83
2022/10/15 01:11:49;;;;;;;29.00;4.13;;;18.30;99.90;;;;;;5054669;28;20474;-83
2022/10/15 01:14:48;;;;;;;30.33;4.50;;;18.30;99.90;;;;;;5061528;28;20024;-83
2022/10/15 01:17:39;;;;;;;31.63;3.55;;;18.30;99.90;;;;;;5057752;28;20530;-83
2022/10/15 01:20:26;;;;;;;26.52;4.13;;;18.30;99.90;;;;;;5049258;28;20041;-83
2022/10/15 01:23:01;;;;;;;20.58;3.25;;;18.40;99.90;;;;;;5053546;28;20083;-83
2022/10/15 01:25:36;;;;;;;27.33;4.05;;;18.40;99.90;;;;;;5056273;28;20107;-83
2022/10/15 01:28:19;;;;;;;19.50;3.05;;;18.40;99.90;;;;;;5061918;28;20086;-83
2022/10/15 01:30:53;;;;;;;29.77;4.05;;;18.40;99.90;;;;;;5060452;28;20017;-83
2022/10/15 01:33:31;;;;;;;34.38;5.10;;;18.40;99.90;;;;;;5057246;28;20417;-83
2022/10/15 01:36:02;;;;;;;27.00;4.57;;;18.40;99.90;;;;;;5066960;28;20124;-83
2022/10/15 01:38:33;;;;;;;27.85;4.47;;;18.40;99.90;;;;;;5059711;28;20044;-83
2022/10/15 01:41:09;;;;;;;25.33;3.95;;;18.40;99.90;;;;;;5057280;28;20113;-83
2022/10/15 01:43:42;;;;;;;25.55;4.70;;;18.30;99.90;;;;;;5054393;28;20021;-83
2022/10/15 01:46:17;;;;;;;29.30;4.45;;;18.40;99.90;;;;;;5054225;28;20024;-83
2022/10/15 01:48:43;;;;;;;30.42;4.25;;;18.30;99.90;;;;;;5052794;28;20032;-83
2022/10/15 01:51:11;;;;;;;31.90;4.57;;;18.30;99.90;;;;;;5070825;28;20031;-83
2022/10/15 01:53:38;;;;;;;28.05;4.05;;;18.30;99.90;;;;;;5059257;28;20502;-83
2022/10/15 01:56:10;;;;;;;26.98;4.15;;;18.30;99.90;;;;;;5058933;28;20021;-84
2022/10/15 01:58:48;;;;;;;29.15;5.30;;;18.30;99.90;;;;;;5057005;28;20116;-83
2022/10/15 02:01:14;;;;;;;29.45;4.85;;;18.30;99.90;;;;;;5058843;28;20019;-83
2022/10/15 02:03:49;;;;;;;33.28;4.30;;;18.30;99.90;;;;;;5055036;28;20025;-83
2022/10/15 02:06:35;;;;;;;22.75;3.60;;;18.40;99.90;;;;;;5056439;28;20103;-84
2022/10/15 02:09:03;;;;;;;28.98;4.32;;;18.20;99.90;;;;;;5053613;28;20033;-83
2022/10/15 02:11:35;;;;;;;28.20;4.43;;;18.10;99.90;;;;;;5053394;28;20017;-83
2022/10/15 02:14:10;;;;;;;27.05;4.25;;;18.00;99.90;;;;;;5058396;28;20097;-83
2022/10/15 02:17:09;;;;;;;31.55;3.88;;;18.00;99.90;;;;;;5064980;28;20063;-83
2022/10/15 02:19:48;;;;;;;29.88;5.07;;;18.00;99.90;;;;;;5052977;28;20136;-85
2022/10/15 02:22:18;;;;;;;34.17;4.65;;;17.90;99.90;;;;;;5053265;28;20505;-86
2022/10/15 02:24:50;;;;;;;34.00;4.82;;;17.90;99.90;;;;;;5052012;28;20018;-85
2022/10/15 02:27:18;;;;;;;35.63;5.13;;;18.00;99.90;;;;;;5062199;28;20051;-85
2022/10/15 02:29:45;;;;;;;29.33;4.70;;;17.90;99.90;;;;;;5058320;28;20013;-85
2022/10/15 02:32:13;;;;;;;34.38;4.10;;;18.00;99.90;;;;;;5058899;28;20033;-86
2022/10/15 02:34:40;;;;;;;37.17;4.43;;;17.90;99.90;;;;;;5056868;28;20033;-86
2022/10/15 02:37:06;;;;;;;35.13;5.35;;;17.90;99.90;;;;;;5055733;28;20638;-86
2022/10/15 02:39:33;;;;;;;35.50;4.43;;;17.90;99.90;;;;;;5056017;28;20552;-86
2022/10/15 02:41:59;;;;;;;38.72;5.70;;;17.90;99.90;;;;;;5052533;28;20606;-85
2022/10/15 02:44:26;;;;;;;30.35;5.28;;;17.90;99.90;;;;;;5053815;28;20021;-85
2022/10/15 02:46:51;;;;;;;33.22;4.07;;;17.80;99.90;;;;;;5052245;28;20532;-85
2022/10/15 02:49:17;;;;;;;32.53;4.78;;;17.90;99.90;;;;;;5054918;28;20104;-85
2022/10/15 02:51:43;;;;;;;29.90;4.30;;;17.80;99.90;;;;;;5060465;28;20370;-85
2022/10/15 02:54:08;;;;;;;36.92;5.28;;;17.80;99.90;;;;;;5057853;28;20033;-86
2022/10/15 02:56:34;;;;;;;28.52;4.60;;;17.70;99.90;;;;;;5059423;28;20099;-85
2022/10/15 02:59:00;;;;;;;32.83;5.07;;;17.70;99.90;;;;;;5054999;28;20037;-85
2022/10/15 03:01:26;;;;;;;29.92;4.35;;;17.70;99.90;;;;;;5058063;28;20073;-86
2022/10/15 03:03:51;;;;;;;33.47;5.10;;;17.70;99.90;;;;;;5054040;28;20104;-85
2022/10/15 03:06:17;;;;;;;35.72;5.00;;;17.70;99.90;;;;;;5055285;28;20103;-86
2022/10/15 03:08:44;;;;;;;43.17;5.35;;;17.70;99.90;;;;;;5052892;28;20036;-86
2022/10/15 03:11:10;;;;;;;30.08;4.22;;;17.70;99.90;;;;;;5052305;28;20027;-86
2022/10/15 03:13:37;;;;;;;43.35;7.60;;;17.70;99.90;;;;;;5058021;28;20526;-86
2022/10/15 03:16:05;;;;;;;42.70;6.10;;;17.60;99.90;;;;;;5062864;28;20013;-86
2022/10/15 03:18:31;;;;;;;45.35;6.22;;;17.60;99.90;;;;;;5053990;28;20107;-86
2022/10/15 03:20:57;;;;;;;36.17;5.25;;;17.60;99.90;;;;;;5051919;28;20194;-86
2022/10/15 03:23:23;;;;;;;46.85;6.28;;;17.60;99.90;;;;;;5051253;28;20029;-86
2022/10/15 03:25:49;;;;;;;52.40;6.43;;;17.60;99.90;;;;;;5069968;28;20024;-86
2022/10/15 03:28:15;;;;;;;30.45;5.05;;;17.60;99.90;;;;;;5056806;28;20025;-86
2022/10/15 03:30:42;;;;;;;51.00;5.82;;;17.60;99.90;;;;;;5059815;28;20031;-86
2022/10/15 03:33:07;;;;;;;42.60;6.70;;;17.60;99.90;;;;;;5055352;28;20040;-86
2022/10/15 03:35:33;;;;;;;35.13;5.88;;;17.60;99.90;;;;;;5058260;28;20074;-86
2022/10/15 03:37:59;;;;;;;42.92;5.43;;;17.60;99.90;;;;;;5068434;28;20028;-86
2022/10/15 03:40:25;;;;;;;46.08;7.07;;;17.60;99.90;;;;;;5069629;28;20037;-86
2022/10/15 03:42:51;;;;;;;48.30;6.05;;;17.60;99.90;;;;;;5070015;28;20032;-88
2022/10/15 03:45:19;;;;;;;46.72;6.63;;;17.60;99.90;;;;;;5069362;28;20024;-88
2022/10/15 03:47:44;;;;;;;33.42;4.90;;;17.60;99.90;;;;;;5069924;28;20115;-86
2022/10/15 03:50:10;;;;;;;41.25;6.03;;;17.60;99.90;;;;;;5056992;28;20097;-86
2022/10/15 03:52:37;;;;;;;39.47;5.72;;;17.50;99.90;;;;;;5054081;28;20025;-86
2022/10/15 03:55:03;;;;;;;42.97;5.50;;;17.60;99.90;;;;;;5055620;28;20021;-87
2022/10/15 03:57:29;;;;;;;43.05;5.28;;;17.60;99.90;;;;;;5052798;28;20021;-86
2022/10/15 03:59:54;;;;;;;44.83;5.05;;;17.60;99.90;;;;;;5053921;28;20528;-87
2022/10/15 04:02:21;;;;;;;39.97;6.15;;;17.60;99.90;;;;;;5055071;28;20028;-86
2022/10/15 04:04:46;;;;;;;32.03;5.60;;;17.60;99.90;;;;;;5054112;28;20018;-86
2022/10/15 04:07:12;;;;;;;45.03;5.57;;;17.60;99.90;;;;;;5056780;28;20032;-86
2022/10/15 04:09:38;;;;;;;36.40;5.40;;;17.60;99.90;;;;;;5056619;28;20025;-85
2022/10/15 04:12:04;;;;;;;32.35;5.18;;;17.60;99.90;;;;;;5059901;28;20103;-87
2022/10/15 04:14:29;;;;;;;33.85;5.15;;;17.70;99.90;;;;;;5062079;28;20043;-86
2022/10/15 04:16:57;;;;;;;41.97;6.22;;;17.70;99.90;;;;;;5062215;28;20021;-86
2022/10/15 04:19:23;;;;;;;42.38;5.97;;;17.70;99.90;;;;;;5056550;28;20033;-88
2022/10/15 04:21:49;;;;;;;33.67;5.15;;;17.70;99.90;;;;;;5051111;28;20025;-87
2022/10/15 04:24:14;;;;;;;39.83;5.88;;;17.70;99.90;;;;;;5056889;28;20035;-87
2022/10/15 04:26:40;;;;;;;33.35;5.45;;;17.80;99.90;;;;;;5056506;28;20501;-87
2022/10/15 04:29:06;;;;;;;32.83;5.05;;;17.80;99.90;;;;;;5065713;28;20051;-87
2022/10/15 04:31:32;;;;;;;28.55;5.15;;;17.80;99.90;;;;;;5061434;28;20448;-87
2022/10/15 04:33:57;;;;;;;31.20;4.00;;;17.80;99.90;;;;;;5057098;28;20052;-87
2022/10/15 04:36:23;;;;;;;27.15;4.75;;;17.90;99.90;;;;;;5053920;28;20081;-87
2022/10/15 04:38:49;;;;;;;28.50;4.13;;;17.90;99.90;;;;;;5053824;28;20033;-87
2022/10/15 04:41:15;;;;;;;31.80;4.43;;;17.90;99.90;;;;;;5053245;28;20017;-86
2022/10/15 04:43:41;;;;;;;36.92;5.40;;;17.90;99.90;;;;;;5050882;28;20033;-87
2022/10/15 04:46:08;;;;;;;35.72;4.72;;;18.00;99.90;;;;;;5051271;28;20062;-87
2022/10/15 04:48:35;;;;;;;29.63;4.32;;;18.00;99.90;;;;;;5049981;28;20374;-87
2022/10/15 04:51:08;;;;;;;36.25;4.65;;;18.00;99.90;;;;;;5059618;28;20024;-87
2022/10/15 04:53:33;;;;;;;33.60;4.93;;;18.10;99.90;;;;;;5056646;28;20025;-87
2022/10/15 04:56:01;;;;;;;33.80;4.88;;;18.10;99.90;;;;;;5056898;28;20374;-87
2022/10/15 04:58:28;;;;;;;32.42;4.32;;;18.20;99.90;;;;;;5055493;28;20029;-87
2022/10/15 05:00:54;;;;;;;33.63;4.60;;;18.20;99.90;;;;;;5052639;28;20025;-87
2022/10/15 05:03:20;;;;;;;31.55;4.22;;;18.20;99.90;;;;;;5054629;28;20503;-86
2022/10/15 05:05:45;;;;;;;33.83;5.05;;;18.20;99.90;;;;;;5053780;28;20036;-86
2022/10/15 05:08:11;;;;;;;30.10;4.47;;;18.20;99.90;;;;;;5064572;28;20025;-86
2022/10/15 05:10:36;;;;;;;30.55;4.90;;;18.20;99.90;;;;;;5056976;28;20398;-86
2022/10/15 05:13:02;;;;;;;34.47;5.13;;;18.20;99.90;;;;;;5055890;28;20052;-85
2022/10/15 05:15:28;;;;;;;25.60;4.30;;;18.10;99.90;;;;;;5069559;28;20415;-86
2022/10/15 05:17:53;;;;;;;31.55;4.95;;;18.10;99.90;;;;;;5054841;28;20083;-86
2022/10/15 05:20:19;;;;;;;29.85;4.43;;;18.20;99.90;;;;;;5055004;28;20739;-86
2022/10/15 05:22:45;;;;;;;34.38;4.47;;;18.20;99.90;;;;;;5053364;28;20021;-86
2022/10/15 05:25:10;;;;;;;37.38;5.78;;;18.20;99.90;;;;;;5060353;28;20057;-82
2022/10/15 05:27:36;;;;;;;38.78;4.25;;;18.20;99.90;;;;;;5063873;28;20070;-86
2022/10/15 05:30:03;;;;;;;27.30;4.50;;;18.20;99.90;;;;;;5057599;28;20033;-87
2022/10/15 05:32:28;;;;;;;37.38;5.57;;;18.10;99.90;;;;;;5061519;28;20665;-86
2022/10/15 05:34:54;;;;;;;30.98;4.60;;;18.00;99.90;;;;;;5056471;28;20052;-86
2022/10/15 05:37:20;;;;;;;36.60;5.63;;;18.00;99.90;;;;;;5058699;28;20054;-86
2022/10/15 05:39:45;;;;;;;38.72;5.45;;;18.00;99.90;;;;;;5054966;28;20028;-87
2022/10/15 05:42:11;;;;;;;33.25;5.22;;;18.00;99.90;;;;;;5055381;28;20022;-86
2022/10/15 05:44:36;;;;;;;33.40;5.82;;;18.00;99.90;;;;;;5059470;28;20035;-85
2022/10/15 05:47:02;;;;;;;34.22;6.28;;;17.90;99.90;;;;;;5059789;28;20444;-86
2022/10/15 05:49:28;;;;;;;45.92;6.53;;;17.90;99.90;;;;;;5070610;28;20481;-88
2022/10/15 05:51:53;;;;;;;41.20;7.30;;;17.90;99.90;;;;;;5070601;28;20048;-87
2022/10/15 05:54:19;;;;;;;41.53;7.95;;;17.80;99.90;;;;;;5063195;28;20108;-86
2022/10/15 05:56:45;;;;;;;40.95;6.38;;;17.80;99.90;;;;;;5067237;28;20028;-86
2022/10/15 05:59:10;;;;;;;49.92;7.85;;;17.80;99.90;;;;;;5064969;28;20089;-87
2022/10/15 06:01:36;;;;;;;47.33;7.03;;;17.70;99.90;;;;;;5058250;28;20027;-86
2022/10/15 06:04:02;;;;;;;55.63;6.60;;;17.70;99.90;;;;;;5054913;28;20112;-87
2022/10/15 06:06:28;;;;;;;50.38;6.72;;;17.70;99.90;;;;;;5055779;28;20110;-87
2022/10/15 06:08:54;;;;;;;34.08;5.63;;;17.70;99.90;;;;;;5058385;28;20029;-87
2022/10/15 06:11:20;;;;;;;31.00;6.00;;;17.70;99.90;;;;;;5052831;28;20107;-87
2022/10/15 06:13:46;;;;;;;42.55;7.80;;;17.70;99.90;;;;;;5058912;28;20526;-86
2022/10/15 06:16:14;;;;;;;38.63;6.53;;;17.70;99.90;;;;;;5069111;28;20040;-86
2022/10/15 06:18:39;;;;;;;42.42;6.43;;;17.70;99.90;;;;;;5057769;28;20039;-87
2022/10/15 06:21:06;;;;;;;42.65;6.18;;;17.70;99.90;;;;;;5067456;28;20584;-86
2022/10/15 06:23:32;;;;;;;40.50;5.32;;;17.70;99.90;;;;;;5071094;28;20103;-86
2022/10/15 06:26:09;;;;;;;52.38;6.95;;;17.60;99.90;;;;;;5067185;28;20055;-85
2022/10/15 06:28:35;;;;;;;42.17;5.65;;;17.60;99.90;;;;;;5068390;28;20610;-86
2022/10/15 06:31:01;;;;;;;31.17;4.85;;;17.60;99.90;;;;;;5070766;28;20434;-86
2022/10/15 06:33:27;;;;;;;39.00;5.75;;;17.60;99.90;;;;;;5073226;28;20032;-87
2022/10/15 06:35:54;;;;;;;33.88;5.30;;;17.60;99.90;;;;;;5070244;28;20098;-87
2022/10/15 06:38:19;;;;;;;38.97;6.72;;;17.60;99.90;;;;;;5070502;28;20020;-86
2022/10/15 06:40:45;;;;;;;43.83;5.93;;;17.60;99.90;;;;;;5070521;28;20388;-87
2022/10/15 06:43:11;;;;;;;40.13;7.13;;;17.60;99.90;;;;;;5071505;28;20074;-85
2022/10/15 06:45:40;;;;;;;24.80;4.15;;;17.60;99.90;;;;;;5093083;28;20171;-88
2022/10/15 06:48:06;;;;;;;34.95;5.88;;;17.60;99.90;;;;;;5082210;28;20084;-87
2022/10/15 06:50:33;;;;;;;41.72;5.93;;;17.60;99.90;;;;;;5075054;28;20021;-87
2022/10/15 06:52:59;;;;;;;40.38;5.25;;;17.60;99.90;;;;;;5068930;28;20025;-88
2022/10/15 06:55:25;;;;;;;27.50;4.93;;;17.60;99.90;;;;;;5072556;28;20120;-89
2022/10/15 06:57:50;;;;;;;26.25;4.68;;;17.50;99.90;;;;;;5081671;28;20074;-88
2022/10/15 07:00:16;;;;;;;27.73;4.47;;;17.60;99.90;;;;;;5068991;28;20033;-89
2022/10/15 07:02:42;;;;;;;29.27;4.80;;;17.60;99.90;;;;;;5087927;28;20020;-89
2022/10/15 07:05:08;;;;;;;20.98;4.03;;;17.60;99.90;;;;;;5058113;28;20595;-89
2022/10/15 07:07:34;;;;;;;35.20;4.90;;;17.60;99.90;;;;;;5057946;28;20045;-88
2022/10/15 07:09:59;;;;;;;30.98;5.55;;;17.60;99.90;;;;;;5065648;28;20025;-88
2022/10/15 07:12:25;;;;;;;34.13;4.93;;;17.60;99.90;;;;;;5056665;28;20116;-88
2022/10/15 07:14:51;;;;;;;21.85;4.03;;;17.60;99.90;;;;;;5066628;28;20024;-89
2022/10/15 07:17:16;;;;;;;25.17;3.95;;;17.60;99.90;;;;;;5054254;28;20546;-89
2022/10/15 07:19:43;;;;;;;28.30;4.50;;;17.60;99.90;;;;;;5053722;28;20039;-89
2022/10/15 07:22:09;;;;;;;33.10;5.22;;;17.60;99.90;;;;;;5067654;28;20215;-89
2022/10/15 07:24:34;;;;;;;28.65;4.63;;;17.60;99.90;;;;;;5071541;28;20092;-89
2022/10/15 07:27:00;;;;;;;31.73;5.13;;;17.60;99.90;;;;;;5055057;28;20497;-88
2022/10/15 07:29:26;;;;;;;36.42;5.07;;;17.70;99.90;;;;;;5054276;28;20037;-82
2022/10/15 07:31:51;;;;;;;25.27;4.93;;;17.60;99.90;;;;;;5056207;28;20056;-89
2022/10/15 07:34:17;;;;;;;27.25;4.53;;;17.60;99.90;;;;;;5063319;28;20070;-87
2022/10/15 07:36:43;;;;;;;31.70;4.75;;;17.70;99.90;;;;;;5057325;28;20840;-87
2022/10/15 07:39:09;;;;;;;32.75;5.15;;;17.60;99.90;;;;;;5052893;28;20484;-88
2022/10/15 07:41:35;;;;;;;25.48;4.07;;;17.60;99.90;;;;;;5053784;28;20489;-89
2022/10/15 07:44:00;;;;;;;30.98;5.90;;;17.60;99.90;;;;;;5050935;28;20032;-88
2022/10/15 07:46:26;;;;;;;34.30;4.22;;;17.60;99.90;;;;;;5051509;28;20032;-87
2022/10/15 07:48:52;;;;;;;25.77;5.05;;;17.60;99.90;;;;;;5062382;28;20021;-87
2022/10/15 07:51:17;;;;;;;29.05;4.57;;;17.60;99.90;;;;;;5062580;28;20559;-87
2022/10/15 07:53:43;;;;;;;36.97;5.85;;;17.60;99.90;;;;;;5060134;28;20017;-88
2022/10/15 07:56:11;;;;;;;35.05;5.22;;;17.60;99.90;;;;;;5059613;28;20440;-87
2022/10/15 07:58:38;;;;;;;33.67;5.78;;;17.60;99.90;;;;;;5059489;28;20129;-86
2022/10/15 08:01:08;;;;;;;35.80;5.30;;;17.60;99.90;;;;;;5063415;28;20501;-87
2022/10/15 08:03:35;;;;;;;37.13;5.43;;;17.60;99.90;;;;;;5064632;28;20032;-87
2022/10/15 08:06:02;;;;;;;44.97;5.60;;;17.60;99.90;;;;;;5050369;28;20551;-86
2022/10/15 08:08:28;;;;;;;46.97;6.47;;;17.60;99.90;;;;;;5066597;28;20409;-85
2022/10/15 08:10:54;;;;;;;37.13;5.32;;;17.70;99.90;;;;;;5049035;28;20477;-86
2022/10/15 08:13:20;;;;;;;42.53;5.95;;;17.70;99.90;;;;;;5057683;28;20053;-85
2022/10/15 08:15:46;;;;;;;40.63;5.57;;;17.70;99.90;;;;;;5063884;28;20024;-86
2022/10/15 08:18:12;;;;;;;40.22;5.07;;;17.70;99.90;;;;;;5051331;28;20473;-85
2022/10/15 08:20:39;;;;;;;38.58;5.40;;;17.70;99.90;;;;;;5060885;28;20038;-85
2022/10/15 08:23:12;;;;;;;38.10;5.80;;;17.70;99.90;;;;;;5058122;28;20025;-84
2022/10/15 08:25:39;;;;;;;30.20;4.82;;;17.70;99.90;;;;;;5060565;28;20028;-84
2022/10/15 08:28:05;;;;;;;32.70;6.10;;;17.70;99.90;;;;;;5059884;28;20028;-84
2022/10/15 08:30:30;;;;;;;16.83;4.90;;;17.70;99.90;;;;;;5057611;28;20071;-84
2022/10/15 08:32:56;;;;;;;9.77;2.72;;;17.60;99.90;;;;;;5054625;28;20516;-85
2022/10/15 08:35:22;;;;;;;12.05;1.95;;;17.30;99.90;;;;;;5053791;28;20056;-84
2022/10/15 08:37:48;;;;;;;9.38;1.83;;;17.20;99.90;;;;;;5054247;28;20036;-84
2022/10/15 08:40:14;;;;;;;12.85;1.67;;;17.00;99.90;;;;;;5053362;28;20037;-85
2022/10/15 08:42:43;;;;;;;14.50;2.00;;;17.00;99.90;;;;;;5056205;28;20024;-85
2022/10/15 08:45:20;;;;;;;11.18;1.58;;;17.00;99.90;;;;;;5053736;28;20497;-85
2022/10/15 08:47:51;;;;;;;13.57;3.05;;;16.90;99.90;;;;;;5069818;28;20012;-84
2022/10/15 08:50:41;;;;;;;13.50;5.32;;;16.80;99.90;;;;;;5070306;28;20059;-84
2022/10/15 08:53:12;;;;;;;17.60;3.70;;;16.80;99.90;;;;;;5076862;28;20028;-84
2022/10/15 08:55:42;;;;;;;21.17;7.32;;;16.80;99.90;;;;;;5068398;28;20024;-85
2022/10/15 08:58:17;;;;;;;19.30;6.18;;;16.80;99.90;;;;;;5077130;28;20051;-84
2022/10/15 09:01:00;;;;;;;20.70;7.40;;;16.90;99.90;;;;;;5064894;28;20033;-84
2022/10/15 09:03:52;;;;;;;23.25;5.65;;;17.10;99.90;;;;;;5076780;28;20082;-84
2022/10/15 09:06:34;;;;;;;14.73;4.55;;;17.10;99.90;;;;;;5041989;28;20037;-84
2022/10/15 09:09:10;;;;;;;15.70;4.55;;;17.20;99.90;;;;;;5063872;28;20340;-86
2022/10/15 09:12:00;;;;;;;15.80;3.13;;;17.20;99.90;;;;;;5073476;28;20032;-88
2022/10/15 09:14:30;;;;;;;20.27;3.75;;;17.10;99.90;;;;;;5078208;28;20024;-88
2022/10/15 09:17:02;;;;;;;21.10;5.25;;;17.20;99.90;;;;;;5070391;28;20261;-88
2022/10/15 09:19:28;;;;;;;17.23;4.50;;;17.10;99.90;;;;;;5066233;28;20049;-88
2022/10/15 09:21:55;;;;;;;17.67;5.00;;;17.20;99.90;;;;;;5065768;28;20067;-90
2022/10/15 09:24:23;;;;;;;10.23;2.08;;;17.20;99.90;;;;;;5070743;28;20034;-90
2022/10/15 09:27:01;;;;;;;14.85;3.35;;;17.10;99.90;;;;;;5072034;28;20020;-94
2022/10/15 09:29:33;;;;;;;13.10;2.75;;;17.10;99.90;;;;;;5071942;28;20309;-89
2022/10/15 09:32:26;;;;;;;10.57;1.95;;;17.20;99.90;;;;;;5070074;28;20025;-88
2022/10/15 09:35:21;;;;;;;11.60;1.73;;;17.20;99.90;;;;;;5064317;28;20037;-86
2022/10/15 09:37:54;;;;;;;11.15;1.42;;;17.20;99.90;;;;;;5077358;28;20021;-87
2022/10/15 09:40:38;;;;;;;16.25;3.05;;;17.20;99.90;;;;;;5065126;28;20032;-85
2022/10/15 09:43:05;;;;;;;15.35;2.33;;;17.20;99.90;;;;;;5069730;28;20067;-89
2022/10/15 09:45:32;;;;;;;15.43;2.55;;;17.10;99.90;;;;;;5063949;28;20029;-88
2022/10/15 09:48:02;;;;;;;13.65;2.00;;;17.10;99.90;;;;;;5074482;28;20092;-88
2022/10/15 09:50:39;;;;;;;14.40;1.75;;;17.10;99.90;;;;;;5079053;28;20217;-89
2022/10/15 09:53:48;;;;;;;13.98;2.53;;;17.20;99.90;;;;;;5077399;28;20095;-89
2022/10/15 09:56:28;;;;;;;9.60;2.17;;;17.10;99.90;;;;;;4985012;28;20074;-89
2022/10/15 09:58:56;;;;;;;9.48;1.73;;;17.20;99.90;;;;;;5078148;28;20086;-89
2022/10/15 10:01:25;;;;;;;13.15;1.80;;;17.30;99.90;;;;;;5082894;28;20019;-89
2022/10/15 10:03:54;;;;;;;8.75;2.03;;;17.30;99.90;;;;;;5080576;28;20024;-90
2022/10/15 10:06:22;;;;;;;5.55;1.08;;;17.40;99.90;;;;;;5074937;28;20023;-89
2022/10/15 10:08:58;;;;;;;8.23;1.77;;;17.40;99.90;;;;;;5071302;28;20039;-89
2022/10/15 10:11:26;;;;;;;9.45;1.60;;;17.40;99.90;;;;;;5067169;28;20400;-89
2022/10/15 10:13:59;;;;;;;4.57;1.20;;;17.30;99.90;;;;;;5058817;28;20048;-89
2022/10/15 10:16:26;;;;;;;4.05;0.90;;;17.20;99.90;;;;;;5058967;28;20121;-88
2022/10/15 10:19:05;;;;;;;6.10;0.85;;;17.20;99.90;;;;;;5062464;28;20024;-90
2022/10/15 10:21:38;;;;;;;5.22;1.00;;;17.20;99.90;;;;;;5070507;28;20035;-89
2022/10/15 10:24:30;;;;;;;7.10;1.10;;;17.20;99.90;;;;;;5054239;28;20021;-88
2022/10/15 10:27:01;;;;;;;7.60;1.30;;;17.30;99.90;;;;;;5065635;28;20079;-88
2022/10/15 10:29:27;;;;;;;8.93;0.75;;;17.40;99.90;;;;;;5052589;28;20013;-88
2022/10/15 10:31:53;;;;;;;6.60;0.70;;;17.50;99.90;;;;;;5052587;28;20092;-89
2022/10/15 10:34:31;;;;;;;7.43;0.88;;;17.40;99.90;;;;;;5058228;28;20034;-88
2022/10/15 10:37:01;;;;;;;6.93;0.95;;;17.40;99.90;;;;;;5060742;28;20024;-87
2022/10/15 10:39:31;;;;;;;8.00;1.27;;;17.30;99.90;;;;;;5063958;28;20032;-88
2022/10/15 10:42:03;;;;;;;8.00;1.30;;;17.30;99.90;;;;;;5070266;28;20431;-88
2022/10/15 10:44:34;;;;;;;7.75;1.42;;;17.40;99.90;;;;;;5070596;28;20021;-88
2022/10/15 10:47:07;;;;;;;5.43;1.48;;;17.50;99.90;;;;;;5067937;28;20296;-89
2022/10/15 10:49:38;;;;;;;5.00;1.50;;;17.60;99.90;;;;;;5094661;28;20017;-89
2022/10/15 10:52:05;;;;;;;5.93;1.17;;;17.60;99.90;;;;;;5078055;28;20031;-89
2022/10/15 10:54:32;;;;;;;5.60;1.00;;;17.60;99.90;;;;;;5081885;28;20019;-89
2022/10/15 10:56:59;;;;;;;7.57;1.05;;;17.70;99.90;;;;;;5081211;28;20024;-89
2022/10/15 10:59:35;;;;;;;5.72;1.83;;;17.80;99.90;;;;;;5078810;28;20020;-88
2022/10/15 11:02:03;;;;;;;6.93;1.55;;;17.90;99.90;;;;;;5081167;28;20339;-89
2022/10/15 11:04:33;;;;;;;6.32;1.45;;;17.90;99.90;;;;;;5081176;28;20012;-88
2022/10/15 11:07:24;;;;;;;4.00;0.60;;;18.00;99.90;;;;;;5081790;28;20386;-88
2022/10/15 11:10:10;;;;;;;2.92;0.70;;;17.70;99.90;;;;;;5081190;28;20020;-88
2022/10/15 11:12:54;;;;;;;4.60;1.00;;;17.50;99.90;;;;;;5080874;28;20092;-88
2022/10/15 11:15:35;;;;;;;4.25;1.00;;;17.60;99.90;;;;;;5078603;28;20298;-88
2022/10/15 11:18:21;;;;;;;6.65;1.50;;;17.60;99.90;;;;;;5062139;28;20017;-87
2022/10/15 11:21:32;;;;;;;10.73;4.75;;;17.60;99.90;;;;;;5067855;28;20040;-88
2022/10/15 11:24:35;;;;;;;9.43;5.28;;;17.70;99.90;;;;;;5070784;28;20062;-88
2022/10/15 11:27:16;;;;;;;11.95;5.43;;;17.80;99.90;;;;;;5068494;28;20031;-87
2022/10/15 11:30:06;;;;;;;8.52;6.57;;;17.90;99.90;;;;;;5066277;28;20025;-87
2022/10/15 11:32:47;;;;;;;7.57;2.38;;;18.00;99.90;;;;;;5068741;28;20023;-86
2022/10/15 11:35:15;;;;;;;5.78;2.85;;;18.20;99.90;;;;;;5069146;28;20040;-86
2022/10/15 11:37:57;;;;;;;6.88;2.65;;;18.30;99.90;;;;;;5065934;28;20009;-86
2022/10/15 11:40:38;;;;;;;9.45;1.30;;;18.30;99.90;;;;;;5062738;28;20076;-87
2022/10/15 11:43:13;;;;;;;7.80;1.08;;;18.30;99.90;;;;;;5072905;28;20028;-86
2022/10/15 11:46:19;;;;;;;5.78;0.47;;;18.20;99.90;;;;;;5076205;28;20091;-86
2022/10/15 11:49:07;;;;;;;4.82;0.40;;;18.20;99.90;;;;;;5076080;28;20054;-86
2022/10/15 11:51:57;;;;;;;3.75;0.47;;;18.20;99.90;;;;;;5079102;28;20013;-88
2022/10/15 11:54:30;;;;;;;3.00;0.50;;;18.10;99.90;;;;;;5093330;28;20032;-86
2022/10/15 11:56:59;;;;;;;6.43;0.45;;;18.10;99.90;;;;;;5081008;28;20025;-86
2022/10/15 11:59:47;;;;;;;5.30;0.65;;;17.90;99.90;;;;;;5071919;28;20491;-86
2022/10/15 12:02:36;;;;;;;4.68;0.70;;;17.90;99.90;;;;;;5046491;28;20040;-87
2022/10/15 12:05:18;;;;;;;5.63;0.73;;;17.90;99.90;;;;;;5069598;28;20496;-87
2022/10/15 12:07:48;;;;;;;4.97;0.50;;;18.00;99.90;;;;;;5067066;28;20025;-86
2022/10/15 12:10:29;;;;;;;5.53;0.47;;;18.10;99.90;;;;;;5054345;28;20394;-89
2022/10/15 12:13:14;;;;;;;4.18;0.60;;;18.00;99.90;;;;;;5062061;28;20404;-93
2022/10/15 12:15:58;;;;;;;5.00;0.70;;;18.20;99.90;;;;;;5055117;28;20031;-87
2022/10/15 12:18:32;;;;;;;4.55;1.30;;;18.30;99.90;;;;;;5055419;28;20108;-87
2022/10/15 12:20:58;;;;;;;5.63;0.80;;;18.20;99.90;;;;;;5074697;28;20051;-88
2022/10/15 12:23:36;;;;;;;5.43;0.50;;;18.40;99.90;;;;;;5084781;28;20043;-88
2022/10/15 12:26:26;;;;;;;3.95;0.70;;;18.40;99.90;;;;;;5083346;28;20016;-88
2022/10/15 12:28:57;;;;;;;2.72;0.50;;;18.40;99.90;;;;;;5082736;28;20109;-88
2022/10/15 12:31:24;;;;;;;3.53;0.50;;;18.50;99.90;;;;;;5081976;28;20074;-88
2022/10/15 12:33:54;;;;;;;4.50;0.63;;;18.30;99.90;;;;;;5072947;28;20040;-88
2022/10/15 12:36:27;;;;;;;5.22;0.70;;;18.30;99.90;;;;;;5060443;28;20472;-88
2022/10/15 12:39:03;;;;;;;2.13;0.45;;;18.30;99.90;;;;;;5059972;28;20064;-88
2022/10/15 12:41:37;;;;;;;3.97;0.93;;;18.20;99.90;;;;;;5067089;28;20116;-94
2022/10/15 12:44:07;;;;;;;3.63;0.57;;;18.20;99.90;;;;;;5058285;28;20021;-88
2022/10/15 12:46:38;;;;;;;4.60;0.77;;;18.20;99.90;;;;;;5061573;28;20636;-89
2022/10/15 12:49:26;;;;;;;4.90;0.70;;;18.30;99.90;;;;;;5056807;28;20141;-89
2022/10/15 12:51:56;;;;;;;8.00;0.60;;;18.40;99.90;;;;;;5082193;28;20021;-89
2022/10/15 12:54:33;;;;;;;5.95;0.60;;;18.30;99.90;;;;;;5057979;28;20025;-89